Time;durP1;ratioP1;P1;durP2;ratioP2;P2;SDS_P1;SDS_P2;PMS_P1;PMS_P2;Temp;Humidity;BMP_temperature;BMP_pressure;BME280_temperature;BME280_humidity;BME280_pressure;Samples;Min_cycle;Max_cycle;Signal;HPM_P1;HPM_P2
2023/12/17 00:00:39;;;;;;;1.80;0.80;;;;;;;9.51;100.00;102171.41;5016121;28;20079;-78
2023/12/17 00:03:05;;;;;;;1.10;0.70;;;;;;;9.51;100.00;102164.19;5000827;28;20092;-78
2023/12/17 00:05:30;;;;;;;2.03;0.90;;;;;;;9.44;100.00;102163.00;5033491;28;20041;-77
2023/12/17 00:07:56;;;;;;;3.20;0.95;;;;;;;9.38;100.00;102163.56;5001475;28;20087;-77
2023/12/17 00:10:24;;;;;;;2.42;0.85;;;;;;;9.29;100.00;102161.66;5000853;28;20380;-78
2023/12/17 00:12:50;;;;;;;3.78;1.00;;;;;;;9.31;100.00;102167.75;5017240;28;20032;-78
2023/12/17 00:15:15;;;;;;;5.72;1.10;;;;;;;9.29;100.00;102156.28;5000586;28;20030;-78
2023/12/17 00:17:41;;;;;;;5.22;1.00;;;;;;;9.27;100.00;102144.84;5000862;28;20041;-78
2023/12/17 00:20:07;;;;;;;1.83;0.90;;;;;;;9.18;100.00;102142.00;5000604;28;20060;-78
2023/12/17 00:22:33;;;;;;;4.38;1.10;;;;;;;9.13;100.00;102136.16;5000548;28;20124;-77
2023/12/17 00:24:58;;;;;;;3.55;1.00;;;;;;;9.02;100.00;102134.41;5000842;28;20429;-78
2023/12/17 00:27:24;;;;;;;4.55;1.25;;;;;;;8.94;100.00;102128.81;5017032;28;20045;-77
2023/12/17 00:29:50;;;;;;;3.75;1.10;;;;;;;8.88;100.00;102133.88;5000632;28;20059;-77
2023/12/17 00:32:15;;;;;;;5.05;1.27;;;;;;;8.91;100.00;102122.88;5000504;28;20086;-78
2023/12/17 00:34:41;;;;;;;3.55;1.23;;;;;;;8.97;100.00;102130.41;5000347;28;20472;-77
2023/12/17 00:37:07;;;;;;;2.50;1.00;;;;;;;9.03;100.00;102122.69;5000581;28;20041;-77
2023/12/17 00:39:32;;;;;;;3.28;1.38;;;;;;;9.12;100.00;102125.56;5000238;28;20033;-77
2023/12/17 00:41:58;;;;;;;4.60;1.10;;;;;;;9.16;100.00;102121.63;5000359;28;20044;-77
2023/12/17 00:44:24;;;;;;;1.75;0.80;;;;;;;9.21;100.00;102116.72;4999734;28;20037;-77
2023/12/17 00:46:51;;;;;;;2.67;0.90;;;;;;;9.32;100.00;102113.09;5000010;28;20039;-77
2023/12/17 00:49:17;;;;;;;3.38;0.80;;;;;;;9.41;100.00;102106.91;5000699;28;20487;-77
2023/12/17 00:51:44;;;;;;;5.28;1.25;;;;;;;9.48;100.00;102115.28;5032477;28;20029;-78
2023/12/17 00:54:09;;;;;;;1.85;0.98;;;;;;;9.56;100.00;102113.63;5016393;28;20040;-77
2023/12/17 00:56:35;;;;;;;1.40;0.60;;;;;;;9.61;100.00;102105.16;5016551;28;20136;-78
2023/12/17 00:59:01;;;;;;;2.50;0.90;;;;;;;9.62;100.00;102101.47;5016389;28;20083;-78
2023/12/17 01:01:27;;;;;;;1.52;0.75;;;;;;;9.66;100.00;102100.22;5000185;28;20384;-78
2023/12/17 01:03:52;;;;;;;2.47;0.77;;;;;;;9.68;100.00;102093.72;5000178;28;20045;-78
2023/12/17 01:06:18;;;;;;;3.72;1.00;;;;;;;9.66;100.00;102087.66;4999889;28;20448;-78
2023/12/17 01:08:44;;;;;;;3.22;1.00;;;;;;;9.56;100.00;102080.53;4999787;28;20365;-77
2023/12/17 01:11:12;;;;;;;1.65;0.70;;;;;;;9.46;100.00;102078.66;4999757;28;20091;-77
2023/12/17 01:13:37;;;;;;;3.05;1.02;;;;;;;9.38;100.00;102075.81;5032230;28;20026;-78
2023/12/17 01:16:04;;;;;;;1.45;0.80;;;;;;;9.38;100.00;102078.50;4999546;28;20099;-77
2023/12/17 01:18:30;;;;;;;5.25;1.00;;;;;;;9.37;100.00;102075.97;4999915;28;20479;-77
2023/12/17 01:21:01;;;;;;;4.53;0.90;;;;;;;9.40;100.00;102083.75;5016069;28;20104;-77
2023/12/17 01:23:27;;;;;;;2.58;0.80;;;;;;;9.47;100.00;102076.81;5016210;28;20136;-78
2023/12/17 01:25:52;;;;;;;1.77;0.60;;;;;;;9.57;100.00;102088.44;5015899;28;20124;-78
2023/12/17 01:28:21;;;;;;;2.83;0.90;;;;;;;9.62;100.00;102088.03;4999818;28;20112;-78
2023/12/17 01:30:47;;;;;;;2.03;0.82;;;;;;;9.67;100.00;102077.75;5015782;28;20038;-78
2023/12/17 01:33:13;;;;;;;3.22;1.00;;;;;;;9.72;100.00;102077.34;4999402;28;20033;-78
2023/12/17 01:35:38;;;;;;;4.45;1.00;;;;;;;9.75;100.00;102085.97;5015885;28;20044;-78
2023/12/17 01:38:04;;;;;;;1.98;0.70;;;;;;;9.78;100.00;102074.09;4999465;28;20128;-77
2023/12/17 01:40:31;;;;;;;4.45;0.95;;;;;;;9.74;100.00;102068.16;5015966;28;20056;-78
2023/12/17 01:42:57;;;;;;;3.40;0.80;;;;;;;9.73;100.00;102058.38;5032237;28;20034;-77
2023/12/17 01:45:25;;;;;;;3.70;0.80;;;;;;;9.70;100.00;102050.59;4999388;28;20033;-77
2023/12/17 01:47:51;;;;;;;3.10;0.80;;;;;;;9.69;100.00;102043.56;4999273;28;20087;-77
2023/12/17 01:50:17;;;;;;;1.98;0.60;;;;;;;9.67;100.00;102038.31;5015195;28;20029;-78
2023/12/17 01:52:42;;;;;;;3.25;1.00;;;;;;;9.63;100.00;102031.53;4999692;28;20476;-77
2023/12/17 01:55:08;;;;;;;4.10;0.80;;;;;;;9.65;100.00;102048.31;4999075;28;20129;-80
2023/12/17 01:57:37;;;;;;;2.92;0.80;;;;;;;9.67;100.00;102032.09;5015364;28;20065;-77
2023/12/17 02:00:03;;;;;;;3.20;0.90;;;;;;;9.68;100.00;102025.72;4999675;28;20061;-78
2023/12/17 02:02:30;;;;;;;3.85;0.80;;;;;;;9.66;100.00;102019.66;5015992;28;20037;-77
2023/12/17 02:04:56;;;;;;;4.40;0.90;;;;;;;9.63;100.00;102012.72;5031402;28;20082;-77
2023/12/17 02:07:22;;;;;;;3.72;0.90;;;;;;;9.59;100.00;102015.81;4999385;28;20033;-77
2023/12/17 02:09:48;;;;;;;4.03;1.23;;;;;;;9.62;100.00;102020.91;4999383;28;20420;-77
2023/12/17 02:12:27;;;;;;;2.75;1.30;;;;;;;9.72;100.00;102024.47;4998961;28;20048;-77
2023/12/17 02:14:56;;;;;;;3.88;1.00;;;;;;;9.79;100.00;102005.94;5031987;28;20029;-77
2023/12/17 02:17:26;;;;;;;2.10;0.98;;;;;;;9.86;100.00;102023.19;4999169;28;20045;-77
2023/12/17 02:19:52;;;;;;;4.22;1.10;;;;;;;9.90;100.00;102012.03;4999610;28;20056;-78
2023/12/17 02:22:18;;;;;;;2.95;0.93;;;;;;;9.95;100.00;102011.63;5015502;28;20072;-77
2023/12/17 02:24:46;;;;;;;4.10;1.15;;;;;;;10.01;100.00;102004.84;5018469;28;20061;-79
2023/12/17 02:27:23;;;;;;;3.05;1.00;;;;;;;10.08;100.00;102004.13;5003893;28;20045;-77
2023/12/17 02:29:49;;;;;;;3.63;1.38;;;;;;;10.12;100.00;101994.78;5019297;28;20041;-77
2023/12/17 02:32:16;;;;;;;3.17;0.80;;;;;;;10.17;100.00;102010.47;5003031;28;20060;-77
2023/12/17 02:34:44;;;;;;;3.60;1.15;;;;;;;10.20;100.00;102007.50;5002453;28;20103;-77
2023/12/17 02:37:10;;;;;;;1.70;0.70;;;;;;;10.21;100.00;102006.50;5035465;28;20029;-77
2023/12/17 02:39:36;;;;;;;3.33;1.00;;;;;;;10.19;100.00;102002.25;5002848;28;20128;-77
2023/12/17 02:42:01;;;;;;;3.95;1.00;;;;;;;10.20;100.00;102004.81;5002771;28;20030;-77
2023/12/17 02:44:27;;;;;;;3.72;1.10;;;;;;;10.24;100.00;102000.00;5002270;28;20095;-78
2023/12/17 02:46:54;;;;;;;6.03;1.45;;;;;;;10.26;100.00;102004.22;5002511;28;20436;-78
2023/12/17 02:49:22;;;;;;;3.92;0.98;;;;;;;10.34;100.00;101993.63;5018266;28;20041;-77
2023/12/17 02:51:50;;;;;;;6.32;1.10;;;;;;;10.38;100.00;101983.47;5019008;28;20033;-78
2023/12/17 02:54:17;;;;;;;2.85;0.80;;;;;;;10.37;100.00;101984.44;5002267;28;20120;-77
2023/12/17 02:56:43;;;;;;;4.75;0.88;;;;;;;10.39;100.00;101987.84;5019111;28;20048;-78
2023/12/17 02:59:10;;;;;;;3.65;0.95;;;;;;;10.39;100.00;101974.41;5018798;28;20049;-78
2023/12/17 03:01:35;;;;;;;2.53;0.90;;;;;;;10.42;100.00;101971.41;5034971;28;20090;-77
2023/12/17 03:04:07;;;;;;;3.30;0.90;;;;;;;10.44;100.00;101966.75;5002381;28;20120;-78
2023/12/17 03:06:35;;;;;;;2.55;0.85;;;;;;;10.44;100.00;101979.34;5002750;28;20128;-77
2023/12/17 03:09:03;;;;;;;3.33;0.90;;;;;;;10.42;100.00;101974.09;5034845;28;20404;-77
2023/12/17 03:11:30;;;;;;;3.22;0.90;;;;;;;10.42;100.00;101971.41;5034773;28;20465;-77
2023/12/17 03:13:59;;;;;;;1.70;0.90;;;;;;;10.40;100.00;101973.41;5018383;28;20036;-77
2023/12/17 03:16:25;;;;;;;1.42;0.90;;;;;;;10.42;100.00;101978.63;5018200;28;20037;-78
2023/12/17 03:18:52;;;;;;;1.83;0.73;;;;;;;10.44;100.00;101976.66;5002117;28;20041;-78
2023/12/17 03:21:18;;;;;;;4.00;0.90;;;;;;;10.43;100.00;101965.06;5001814;28;20059;-77
2023/12/17 03:23:44;;;;;;;2.38;0.80;;;;;;;10.39;100.00;101966.31;5034415;28;20043;-78
2023/12/17 03:26:12;;;;;;;2.55;0.93;;;;;;;10.41;100.00;101961.66;5001865;28;20432;-78
2023/12/17 03:28:38;;;;;;;2.00;0.88;;;;;;;10.43;100.00;101958.84;5002118;28;20041;-78
2023/12/17 03:31:04;;;;;;;2.15;0.85;;;;;;;10.42;100.00;101947.22;5001957;28;20037;-78
2023/12/17 03:33:29;;;;;;;3.15;0.70;;;;;;;10.41;100.00;101956.28;5001330;28;20033;-77
2023/12/17 03:35:58;;;;;;;4.47;0.80;;;;;;;10.41;100.00;101940.16;5001600;28;20041;-78
2023/12/17 03:38:26;;;;;;;1.92;1.02;;;;;;;10.38;100.00;101943.13;5017801;28;20097;-79
2023/12/17 03:40:55;;;;;;;2.25;0.80;;;;;;;10.40;100.00;101941.16;5001284;28;20029;-78
2023/12/17 03:43:23;;;;;;;2.53;0.80;;;;;;;10.41;100.00;101932.09;5018198;28;20037;-77
2023/12/17 03:45:48;;;;;;;1.77;0.75;;;;;;;10.37;100.00;101930.66;5017674;28;20025;-79
2023/12/17 03:48:17;;;;;;;5.35;1.00;;;;;;;10.34;100.00;101931.81;5001549;28;20029;-78
2023/12/17 03:50:43;;;;;;;1.15;0.65;;;;;;;10.30;100.00;101930.41;5001220;28;20044;-78
2023/12/17 03:53:10;;;;;;;1.92;0.60;;;;;;;10.28;100.00;101923.50;5001489;28;20041;-78
2023/12/17 03:55:39;;;;;;;1.92;0.70;;;;;;;10.26;100.00;101933.50;5001148;28;20056;-78
2023/12/17 03:58:04;;;;;;;1.63;0.73;;;;;;;10.27;100.00;101938.78;5033603;28;20108;-78
2023/12/17 04:00:33;;;;;;;2.55;0.73;;;;;;;10.28;100.00;101929.72;5017734;28;20132;-78
2023/12/17 04:02:58;;;;;;;2.97;0.80;;;;;;;10.28;100.00;101923.50;5000792;28;20437;-78
2023/12/17 04:05:27;;;;;;;4.82;0.85;;;;;;;10.30;100.00;101924.19;5017303;28;20045;-77
2023/12/17 04:07:53;;;;;;;1.75;0.70;;;;;;;10.31;100.00;101925.88;5017861;28;20041;-78
2023/12/17 04:10:18;;;;;;;4.47;0.90;;;;;;;10.25;100.00;101921.91;5000994;28;20025;-78
2023/12/17 04:12:47;;;;;;;3.10;0.70;;;;;;;10.24;100.00;101913.97;5033486;28;20025;-78
2023/12/17 04:15:14;;;;;;;1.30;0.63;;;;;;;10.21;100.00;101915.09;5000878;28;20033;-78
2023/12/17 04:17:40;;;;;;;0.80;0.80;;;;;;;10.20;100.00;101909.91;5033499;28;20053;-78
2023/12/17 04:20:06;;;;;;;1.02;0.70;;;;;;;10.20;100.00;101905.38;5017003;28;20034;-77
2023/12/17 04:22:34;;;;;;;4.63;0.90;;;;;;;10.19;100.00;101910.88;5016592;28;20135;-77
2023/12/17 04:25:00;;;;;;;1.75;0.70;;;;;;;10.15;100.00;101899.56;5016897;28;20030;-77
2023/12/17 04:27:25;;;;;;;1.85;0.68;;;;;;;10.17;100.00;101907.50;5016981;28;20099;-77
2023/12/17 04:29:55;;;;;;;1.85;0.85;;;;;;;10.12;100.00;101892.66;5000677;28;20029;-77
2023/12/17 04:32:21;;;;;;;2.05;0.63;;;;;;;10.13;100.00;101880.06;5017077;28;20119;-78
2023/12/17 04:34:47;;;;;;;4.70;1.20;;;;;;;10.10;100.00;101874.97;5000230;28;20037;-78
2023/12/17 04:37:12;;;;;;;2.50;0.70;;;;;;;10.08;100.00;101869.75;5000704;28;20033;-77
2023/12/17 04:39:38;;;;;;;1.05;0.60;;;;;;;10.09;100.00;101878.66;5000380;28;20033;-76
2023/12/17 04:42:04;;;;;;;1.08;0.60;;;;;;;10.06;100.00;101865.53;5000568;28;20056;-77
2023/12/17 04:44:29;;;;;;;2.17;0.82;;;;;;;10.01;100.00;101865.09;4999672;28;20491;-77
2023/12/17 04:46:57;;;;;;;4.50;0.80;;;;;;;9.95;100.00;101853.09;4999758;28;20399;-77
2023/12/17 04:49:23;;;;;;;2.38;0.60;;;;;;;9.98;100.00;101860.03;5000471;28;20554;-77
2023/12/17 04:51:48;;;;;;;1.58;0.68;;;;;;;9.94;100.00;101854.09;5000344;28;20033;-77
2023/12/17 04:54:15;;;;;;;3.10;0.70;;;;;;;9.92;100.00;101858.75;5000081;28;20080;-77
2023/12/17 04:56:40;;;;;;;1.23;0.43;;;;;;;9.86;100.00;101853.97;5000125;28;20045;-77
2023/12/17 04:59:06;;;;;;;4.47;0.88;;;;;;;9.87;100.00;101842.22;5032849;28;20033;-78
2023/12/17 05:01:32;;;;;;;2.67;0.80;;;;;;;9.87;100.00;101851.13;5016230;28;20041;-77
2023/12/17 05:03:57;;;;;;;0.90;0.80;;;;;;;9.84;100.00;101842.50;4999926;28;20128;-77
2023/12/17 05:06:25;;;;;;;1.38;0.60;;;;;;;9.73;100.00;101851.56;5000137;28;20029;-78
2023/12/17 05:08:51;;;;;;;2.75;0.70;;;;;;;9.67;100.00;101846.78;4999990;28;20029;-78
2023/12/17 05:11:17;;;;;;;2.28;0.68;;;;;;;9.59;100.00;101836.75;5015875;28;20036;-77
2023/12/17 05:13:43;;;;;;;1.30;0.70;;;;;;;9.55;100.00;101835.38;4999436;28;20041;-77
2023/12/17 05:16:08;;;;;;;1.98;0.80;;;;;;;9.54;100.00;101844.38;5016041;28;20026;-77
2023/12/17 05:18:34;;;;;;;3.92;0.60;;;;;;;9.49;100.00;101843.13;4999981;28;20053;-77
2023/12/17 05:21:00;;;;;;;3.03;0.60;;;;;;;9.47;100.00;101840.56;5016323;28;20032;-77
2023/12/17 05:23:25;;;;;;;2.60;0.70;;;;;;;9.41;100.00;101828.56;4999658;28;20037;-77
2023/12/17 05:25:51;;;;;;;1.88;0.70;;;;;;;9.37;100.00;101827.16;5015991;28;20094;-77
2023/12/17 05:28:17;;;;;;;2.35;0.73;;;;;;;9.33;100.00;101833.78;5016292;28;20033;-77
2023/12/17 05:30:43;;;;;;;2.47;0.93;;;;;;;9.36;100.00;101825.44;5000226;28;20033;-78
2023/12/17 05:33:08;;;;;;;5.32;1.05;;;;;;;9.43;100.00;101829.28;4999445;28;20044;-79
2023/12/17 05:35:35;;;;;;;3.78;0.80;;;;;;;9.52;100.00;101822.19;5015713;28;20037;-77
2023/12/17 05:38:01;;;;;;;1.60;0.77;;;;;;;9.60;100.00;101830.38;4999314;28;20037;-77
2023/12/17 05:40:26;;;;;;;2.25;0.80;;;;;;;9.59;100.00;101828.69;4999748;28;20064;-77
2023/12/17 05:42:52;;;;;;;4.05;1.10;;;;;;;9.59;100.00;101825.16;4999431;28;20468;-77
2023/12/17 05:45:20;;;;;;;4.07;0.98;;;;;;;9.63;100.00;101830.13;5015708;28;20069;-77
2023/12/17 05:47:46;;;;;;;2.63;1.05;;;;;;;9.66;100.00;101823.63;5016410;28;20033;-77
2023/12/17 05:50:12;;;;;;;1.75;0.90;;;;;;;9.67;100.00;101823.44;4999522;28;20123;-77
2023/12/17 05:52:37;;;;;;;7.70;1.20;;;;;;;9.60;100.00;101822.31;4999381;28;20107;-78
2023/12/17 05:55:04;;;;;;;3.05;0.82;;;;;;;9.54;100.00;101819.38;4999145;28;20030;-77
2023/12/17 05:57:30;;;;;;;2.35;0.82;;;;;;;9.52;100.00;101827.56;5001201;28;20033;-77
2023/12/17 05:59:58;;;;;;;4.15;1.05;;;;;;;9.52;100.00;101824.88;5003676;28;20491;-77
2023/12/17 06:02:24;;;;;;;3.22;1.00;;;;;;;9.55;100.00;101826.44;5035729;28;20120;-77
2023/12/17 06:04:52;;;;;;;2.97;1.05;;;;;;;9.51;100.00;101815.16;5019098;28;20112;-77
2023/12/17 06:07:18;;;;;;;5.05;1.40;;;;;;;9.52;100.00;101814.13;5036133;28;20480;-77
2023/12/17 06:09:44;;;;;;;3.65;0.90;;;;;;;9.54;100.00;101806.78;5036096;28;20088;-77
2023/12/17 06:12:17;;;;;;;3.33;1.00;;;;;;;9.56;100.00;101806.66;5019152;28;20049;-77
2023/12/17 06:14:42;;;;;;;8.52;1.58;;;;;;;9.54;100.00;101808.63;5003679;28;20033;-77
2023/12/17 06:17:49;;;;;;;4.85;1.35;;;;;;;9.49;100.00;101801.00;5003017;28;20040;-78
2023/12/17 06:20:17;;;;;;;2.65;0.98;;;;;;;9.59;100.00;101811.75;5035810;28;20037;-77
2023/12/17 06:22:43;;;;;;;6.30;1.58;;;;;;;9.62;100.00;101795.34;5002867;28;20080;-77
2023/12/17 06:25:13;;;;;;;8.20;1.80;;;;;;;9.59;100.00;101801.84;5018901;28;20037;-77
2023/12/17 06:27:38;;;;;;;6.28;1.50;;;;;;;9.57;100.00;101793.09;5019487;28;20040;-77
2023/12/17 06:30:54;;;;;;;7.90;1.80;;;;;;;9.59;100.00;101792.94;4986931;28;20034;-77
2023/12/17 06:33:01;;;;;;;8.05;1.88;;;;;;;9.66;100.00;101805.66;5017172;28;20042;-77
2023/12/17 06:35:27;;;;;;;4.82;1.40;;;;;;;9.63;100.00;101795.22;4986412;28;20091;-77
2023/12/17 06:37:53;;;;;;;4.93;1.55;;;;;;;9.66;100.00;101802.13;5019156;28;20101;-77
2023/12/17 06:40:18;;;;;;;7.20;1.42;;;;;;;9.71;100.00;101799.00;5002718;28;20072;-77
2023/12/17 06:42:49;;;;;;;5.82;2.00;;;;;;;9.85;100.00;101803.91;5019047;28;20021;-77
2023/12/17 06:45:14;;;;;;;6.03;1.50;;;;;;;9.96;100.00;101801.06;5019153;28;20029;-77
2023/12/17 06:47:40;;;;;;;5.68;1.77;;;;;;;10.07;100.00;101800.88;5018949;28;20494;-78
2023/12/17 06:50:07;;;;;;;8.98;1.75;;;;;;;10.19;100.00;101803.34;5002330;28;20444;-77
2023/12/17 06:52:32;;;;;;;8.48;2.10;;;;;;;10.21;100.00;101794.16;5018396;28;20499;-77
2023/12/17 06:54:58;;;;;;;3.08;1.73;;;;;;;10.26;100.00;101791.88;5018794;28;20037;-77
2023/12/17 06:57:24;;;;;;;10.25;1.65;;;;;;;10.24;100.00;101785.81;5018790;28;20044;-78
2023/12/17 06:59:50;;;;;;;5.88;1.15;;;;;;;10.26;100.00;101788.34;5002460;28;20041;-77
2023/12/17 07:02:15;;;;;;;7.70;1.50;;;;;;;10.32;100.00;101779.75;5002014;28;20044;-77
2023/12/17 07:04:41;;;;;;;7.28;1.40;;;;;;;10.33;100.00;101784.09;5002104;28;20045;-77
2023/12/17 07:07:07;;;;;;;5.28;1.60;;;;;;;10.32;100.00;101783.28;5034744;28;20029;-77
2023/12/17 07:09:33;;;;;;;4.80;1.73;;;;;;;10.34;100.00;101791.16;5001607;28;20036;-77
2023/12/17 07:11:58;;;;;;;6.50;1.80;;;;;;;10.31;100.00;101791.47;5002092;28;20029;-77
2023/12/17 07:14:24;;;;;;;8.30;2.08;;;;;;;10.26;100.00;101791.03;5001961;28;20030;-77
2023/12/17 07:16:49;;;;;;;6.65;1.60;;;;;;;10.24;100.00;101783.13;5001846;28;20033;-77
2023/12/17 07:19:20;;;;;;;5.30;1.42;;;;;;;10.29;100.00;101790.75;5002097;28;20037;-77
2023/12/17 07:21:45;;;;;;;8.73;1.75;;;;;;;10.37;100.00;101796.25;5002086;28;20124;-77
2023/12/17 07:24:11;;;;;;;6.80;1.65;;;;;;;10.39;100.00;101788.88;5001821;28;20129;-77
2023/12/17 07:26:37;;;;;;;5.45;1.70;;;;;;;10.41;100.00;101786.88;5017393;28;20059;-77
2023/12/17 07:29:03;;;;;;;6.68;1.65;;;;;;;10.44;100.00;101791.97;5001610;28;20124;-77
2023/12/17 07:31:28;;;;;;;8.10;2.03;;;;;;;10.50;100.00;101790.50;5001804;28;20033;-77
2023/12/17 07:33:54;;;;;;;7.82;1.88;;;;;;;10.53;100.00;101782.16;5001156;28;20472;-77
2023/12/17 07:36:20;;;;;;;5.85;1.60;;;;;;;10.52;100.00;101781.31;5017453;28;20061;-77
2023/12/17 07:38:46;;;;;;;8.35;1.50;;;;;;;10.53;100.00;101774.94;5001302;28;20072;-77
2023/12/17 07:41:12;;;;;;;9.77;2.50;;;;;;;10.57;100.00;101787.09;5017598;28;20059;-77
2023/12/17 07:43:38;;;;;;;11.48;2.15;;;;;;;10.60;100.00;101777.03;5017482;28;20044;-77
2023/12/17 07:46:07;;;;;;;8.82;2.20;;;;;;;10.63;100.00;101784.78;5001452;28;20037;-78
2023/12/17 07:48:33;;;;;;;9.50;2.55;;;;;;;10.64;100.00;101784.66;5001278;28;20468;-78
2023/12/17 07:51:01;;;;;;;9.25;2.22;;;;;;;10.68;100.00;101787.88;5000493;28;20044;-77
2023/12/17 07:53:27;;;;;;;7.38;2.13;;;;;;;10.73;100.00;101788.25;5001435;28;20030;-77
2023/12/17 07:55:57;;;;;;;8.07;2.13;;;;;;;10.75;100.00;101789.81;5016998;28;20033;-78
2023/12/17 07:58:28;;;;;;;13.65;2.92;;;;;;;10.75;100.00;101795.19;5017759;28;20025;-77
2023/12/17 08:00:57;;;;;;;9.52;2.88;;;;;;;10.75;100.00;101799.72;5000762;28;20072;-78
2023/12/17 08:03:23;;;;;;;6.75;2.53;;;;;;;10.76;100.00;101807.63;5000732;28;20084;-77
2023/12/17 08:05:50;;;;;;;7.60;2.65;;;;;;;10.77;100.00;101805.81;5033051;28;20079;-77
2023/12/17 08:08:16;;;;;;;9.35;2.15;;;;;;;10.79;100.00;101817.25;5033194;28;20399;-77
2023/12/17 08:10:42;;;;;;;5.40;2.15;;;;;;;10.77;100.00;101814.72;5000729;28;20088;-77
2023/12/17 08:13:08;;;;;;;9.82;2.60;;;;;;;10.77;100.00;101816.56;5000601;28;20503;-78
2023/12/17 08:15:33;;;;;;;12.32;2.13;;;;;;;10.73;100.00;101826.75;5016805;28;20032;-78
2023/12/17 08:17:59;;;;;;;10.30;2.10;;;;;;;10.72;100.00;101826.94;5016988;28;20095;-78
2023/12/17 08:20:27;;;;;;;6.50;2.33;;;;;;;10.71;100.00;101828.75;4999378;28;20037;-79
2023/12/17 08:22:58;;;;;;;12.65;2.70;;;;;;;10.71;100.00;101830.59;5015208;28;20049;-78
2023/12/17 08:25:24;;;;;;;6.40;1.98;;;;;;;10.68;100.00;101830.91;5014444;28;20033;-78
2023/12/17 08:27:50;;;;;;;8.23;2.40;;;;;;;10.64;100.00;101835.75;5030789;28;20044;-78
2023/12/17 08:30:18;;;;;;;9.60;2.72;;;;;;;10.61;100.00;101843.25;4998466;28;20373;-78
2023/12/17 08:32:45;;;;;;;11.73;2.22;;;;;;;10.60;100.00;101838.88;5014619;28;20087;-79
2023/12/17 08:35:11;;;;;;;8.30;2.30;;;;;;;10.57;100.00;101838.19;5013940;28;20037;-78
2023/12/17 08:37:37;;;;;;;8.50;2.20;;;;;;;10.57;100.00;101846.25;5032037;28;20503;-79
2023/12/17 08:40:03;;;;;;;11.43;2.70;;;;;;;10.56;100.00;101847.25;5016429;28;20042;-78
2023/12/17 08:42:29;;;;;;;13.05;2.92;;;;;;;10.54;100.00;101851.09;4999743;28;20053;-79
2023/12/17 08:44:58;;;;;;;10.90;2.53;;;;;;;10.53;100.00;101854.75;4999425;28;20408;-79
2023/12/17 08:47:24;;;;;;;7.40;2.10;;;;;;;10.55;100.00;101852.78;5016593;28;20045;-78
2023/12/17 08:49:49;;;;;;;7.03;2.20;;;;;;;10.59;100.00;101856.88;4999577;28;20037;-78
2023/12/17 08:52:15;;;;;;;7.60;2.30;;;;;;;10.63;100.00;101850.19;4999144;28;20037;-77
2023/12/17 08:54:40;;;;;;;8.30;2.45;;;;;;;10.66;100.00;101859.78;5016196;28;20473;-78
2023/12/17 08:57:06;;;;;;;10.90;2.70;;;;;;;10.70;100.00;101855.81;5016241;28;20103;-78
2023/12/17 08:59:35;;;;;;;6.90;2.70;;;;;;;10.73;100.00;101868.97;4999780;28;20135;-78
2023/12/17 09:02:04;;;;;;;10.20;2.73;;;;;;;10.77;100.00;101857.75;4999246;28;20083;-78
2023/12/17 09:04:30;;;;;;;7.93;2.10;;;;;;;10.81;100.00;101863.69;5016089;28;20279;-79
2023/12/17 09:06:56;;;;;;;7.85;2.90;;;;;;;10.84;100.00;101855.31;5032155;28;20033;-78
2023/12/17 09:09:22;;;;;;;12.77;3.80;;;;;;;10.89;100.00;101855.69;5015974;28;20049;-79
2023/12/17 09:11:47;;;;;;;8.95;2.78;;;;;;;10.91;100.00;101845.63;5000021;28;20041;-79
2023/12/17 09:14:13;;;;;;;11.98;2.50;;;;;;;10.97;100.00;101836.94;4999446;28;20029;-78
2023/12/17 09:16:39;;;;;;;7.85;2.25;;;;;;;11.07;100.00;101836.06;4999772;28;20078;-78
2023/12/17 09:19:05;;;;;;;10.00;2.38;;;;;;;11.14;100.00;101859.50;5015714;28;20487;-78
2023/12/17 09:21:31;;;;;;;7.78;2.17;;;;;;;11.20;100.00;101856.19;5016111;28;20370;-78
2023/12/17 09:23:57;;;;;;;6.95;2.00;;;;;;;11.29;100.00;101857.13;4999785;28;20033;-79
2023/12/17 09:26:23;;;;;;;6.22;1.77;;;;;;;11.35;100.00;101851.13;4999474;28;20041;-79
2023/12/17 09:28:49;;;;;;;9.18;2.55;;;;;;;11.43;100.00;101844.94;5015906;28;20094;-79
2023/12/17 09:31:15;;;;;;;8.32;2.33;;;;;;;11.47;100.00;101848.22;4999408;28;20030;-79
2023/12/17 09:33:41;;;;;;;5.60;2.30;;;;;;;11.45;100.00;101856.44;5031564;28;20487;-79
2023/12/17 09:36:07;;;;;;;6.90;2.30;;;;;;;11.42;100.00;101849.50;5015116;28;20053;-78
2023/12/17 09:38:33;;;;;;;5.85;1.80;;;;;;;11.43;100.00;101861.13;5014596;28;20041;-79
2023/12/17 09:40:59;;;;;;;3.50;1.60;;;;;;;11.39;100.00;101857.06;4998812;28;20033;-79
2023/12/17 09:43:26;;;;;;;8.13;2.00;;;;;;;11.40;100.00;101859.56;4999430;28;20037;-78
2023/12/17 09:45:52;;;;;;;6.88;2.25;;;;;;;11.42;100.00;101857.59;4999010;28;20121;-80
2023/12/17 09:48:18;;;;;;;7.88;2.35;;;;;;;11.37;100.00;101865.28;5014368;28;20028;-80
2023/12/17 09:50:44;;;;;;;6.15;1.95;;;;;;;11.28;100.00;101870.75;5030314;28;20472;-80
2023/12/17 09:53:09;;;;;;;9.57;2.40;;;;;;;11.28;100.00;101868.91;4998065;28;20041;-80
2023/12/17 09:55:36;;;;;;;8.95;2.03;;;;;;;11.32;100.00;101870.28;4997773;28;20500;-80
2023/12/17 09:58:04;;;;;;;5.60;1.90;;;;;;;11.37;100.00;101875.22;5014281;28;20048;-80
2023/12/17 10:00:30;;;;;;;5.38;1.70;;;;;;;11.41;100.00;101865.84;4997695;28;20037;-80
2023/12/17 10:03:04;;;;;;;10.57;2.40;;;;;;;11.44;100.00;101860.13;5015509;28;20037;-80
2023/12/17 10:05:30;;;;;;;8.30;2.15;;;;;;;11.49;100.00;101865.06;4999598;28;20033;-79
2023/12/17 10:07:56;;;;;;;8.18;3.72;;;;;;;11.54;100.00;101877.06;5015913;28;20493;-79
2023/12/17 10:10:21;;;;;;;9.93;2.90;;;;;;;11.57;100.00;101874.06;5015450;28;20094;-80
2023/12/17 10:12:47;;;;;;;10.82;3.50;;;;;;;11.53;100.00;101875.34;5002346;28;20037;-79
2023/12/17 10:15:13;;;;;;;6.03;2.10;;;;;;;11.31;100.00;101871.28;5008939;28;20084;-80
2023/12/17 10:17:40;;;;;;;7.20;2.17;;;;;;;11.10;100.00;101862.66;5045172;28;20187;-79
2023/12/17 10:20:07;;;;;;;9.13;2.38;;;;;;;11.05;100.00;101870.34;5016950;28;20034;-79
2023/12/17 10:22:33;;;;;;;10.10;2.80;;;;;;;11.07;100.00;101866.50;5031842;28;20112;-80
2023/12/17 10:24:59;;;;;;;11.10;2.42;;;;;;;11.10;100.00;101862.66;5015818;28;20142;-79
2023/12/17 10:27:27;;;;;;;8.05;2.38;;;;;;;11.14;100.00;101859.50;4999204;28;20415;-79
2023/12/17 10:29:53;;;;;;;9.23;2.60;;;;;;;11.30;100.00;101866.91;5031675;28;20025;-80
2023/12/17 10:32:24;;;;;;;14.43;3.10;;;;;;;11.47;100.00;101858.97;5014986;28;20091;-80
2023/12/17 10:34:50;;;;;;;14.20;3.20;;;;;;;11.61;100.00;101863.81;5015152;28;20034;-80
2023/12/17 10:37:21;;;;;;;10.30;3.00;;;;;;;11.73;100.00;101870.66;4998993;28;20034;-80
2023/12/17 10:39:49;;;;;;;8.55;2.47;;;;;;;11.82;100.00;101872.38;5015434;28;20042;-80
2023/12/17 10:42:17;;;;;;;14.60;3.85;;;;;;;11.88;100.00;101868.25;5015373;28;20026;-80
2023/12/17 10:44:46;;;;;;;17.55;3.10;;;;;;;11.96;100.00;101878.25;5017054;28;20084;-80
2023/12/17 10:47:12;;;;;;;9.75;2.50;;;;;;;12.01;100.00;101875.94;5002865;28;20133;-80
2023/12/17 10:49:38;;;;;;;9.05;2.88;;;;;;;12.06;100.00;101874.44;5002430;28;20047;-80
2023/12/17 10:52:04;;;;;;;13.02;2.30;;;;;;;12.09;100.00;101874.16;5018836;28;20041;-80
2023/12/17 10:54:30;;;;;;;8.85;2.25;;;;;;;12.08;100.00;101869.75;5001725;28;20037;-80
2023/12/17 10:56:58;;;;;;;7.15;2.10;;;;;;;12.06;100.00;101879.00;5018800;28;20144;-80
2023/12/17 10:59:27;;;;;;;7.05;2.53;;;;;;;12.03;100.00;101879.31;5018649;28;20068;-80
2023/12/17 11:01:58;;;;;;;5.63;2.05;;;;;;;11.96;100.00;101880.94;5034503;28;20029;-80
2023/12/17 11:04:24;;;;;;;8.13;2.40;;;;;;;11.94;100.00;101877.59;5018664;28;20037;-80
2023/12/17 11:06:54;;;;;;;9.10;3.10;;;;;;;11.93;100.00;101868.63;5001994;28;20498;-80
2023/12/17 11:09:20;;;;;;;9.77;2.05;;;;;;;11.85;100.00;101864.03;5018319;28;20044;-80
2023/12/17 11:11:47;;;;;;;12.88;3.33;;;;;;;11.78;100.00;101860.25;5034858;28;20029;-80
2023/12/17 11:14:13;;;;;;;7.75;2.53;;;;;;;11.80;100.00;101857.38;5034403;28;20029;-80
2023/12/17 11:16:39;;;;;;;12.18;2.15;;;;;;;11.82;100.00;101850.84;5018285;28;20030;-80